Agoura Hills, California
Current Conditions -  °F | °C
As of 2:51 PM on Wednesday 17 Dec 2014 (Local Time) from KVNY Reporting Station
Broken Clouds Broken Clouds  
Wind Chill: 15°   Ceiling: 4800
Heat Index: 15°   Visibility: 10mi
Dew Point:   Wind: 9mph
Humidity: 58%   Direction: 220°SW
Pressure: 30.04"   Gusts: NA
Location:  34.15°N, 118.77°W
Report Text: KVNY 172251Z 22008KT 10SM BKN048 BKN060 15/07 A3004 RMK AO2 SLP169 T01500067
Loading
Personal Weather Stations






























Interactive Weather Map New forecast layout! Learn more

10-Day Weather Forecast

Advertisements
Track Severe Weather on mobile